createdAt,value
2023-05-14T00:01:59.726Z,97697.19
2023-05-14T00:12:01.942Z,97685.88
2023-05-14T00:22:04.003Z,97685.63
2023-05-14T00:32:06.527Z,97685.38
2023-05-14T00:42:08.661Z,97675.09
2023-05-14T00:52:11.631Z,97673.22
2023-05-14T01:02:13.989Z,97661.87
2023-05-14T01:12:30.130Z,97651.06
2023-05-14T01:22:32.255Z,97645.63
2023-05-14T01:32:34.994Z,97650.22
2023-05-14T01:42:38.746Z,97650.78
2023-05-14T01:52:41.275Z,97651.03
2023-05-14T02:02:43.496Z,97656.62
2023-05-14T02:12:45.650Z,97652.47
2023-05-14T02:22:47.804Z,97636.81
2023-05-14T02:32:50.089Z,97628.47
2023-05-14T02:42:52.414Z,97621.75
2023-05-14T02:52:54.505Z,97615.56
2023-05-14T03:02:56.747Z,97618.22
2023-05-14T03:12:59.431Z,97618.41
2023-05-14T03:23:01.705Z,97615.06
2023-05-14T03:33:04.451Z,97616.84
2023-05-14T03:43:06.632Z,97621.84
2023-05-14T03:53:08.735Z,97621.22
2023-05-14T04:03:11.411Z,97640.63
2023-05-14T04:13:13.696Z,97632.00
2023-05-14T04:23:15.875Z,97639.81
2023-05-14T04:33:18.013Z,97643.94
2023-05-14T04:43:20.428Z,97650.84
2023-05-14T04:53:22.576Z,97642.59
2023-05-14T05:03:24.942Z,97635.41
2023-05-14T05:13:27.170Z,97645.47
2023-05-14T05:23:29.368Z,97659.59
2023-05-14T05:33:31.504Z,97652.13
2023-05-14T05:43:34.777Z,97648.13
2023-05-14T05:53:37.589Z,97636.47
2023-05-14T06:03:40.410Z,97648.25
2023-05-14T06:13:42.976Z,97656.59
2023-05-14T06:23:45.648Z,97646.78
2023-05-14T06:33:48.726Z,97641.88
2023-05-14T06:43:51.356Z,97661.50
2023-05-14T06:53:54.649Z,97658.97
2023-05-14T07:03:57.286Z,97665.34
2023-05-14T07:14:00.193Z,97660.59
2023-05-14T07:24:02.664Z,97654.22
2023-05-14T07:34:05.143Z,97654.22
2023-05-14T07:44:07.817Z,97650.16
2023-05-14T07:54:11.803Z,97643.66
2023-05-14T08:04:16.781Z,97647.47
2023-05-14T08:14:19.382Z,97635.34
2023-05-14T08:24:22.267Z,97642.03
2023-05-14T08:34:24.980Z,97633.34
2023-05-14T08:44:37.320Z,97632.78
2023-05-14T08:54:41.299Z,97619.09
2023-05-14T09:04:44.296Z,97627.19
2023-05-14T09:14:47.941Z,97616.56
2023-05-14T09:25:05.663Z,97611.38
2023-05-14T09:35:12.535Z,97609.03
2023-05-14T09:45:16.115Z,97596.28
2023-05-14T09:55:22.133Z,97598.97
2023-05-14T10:05:27.673Z,97607.41
2023-05-14T10:15:36.654Z,97600.69
2023-05-14T10:25:39.999Z,97585.09
2023-05-14T10:36:00.728Z,97581.44
2023-05-14T10:46:03.716Z,97574.31
2023-05-14T10:56:10.855Z,97563.50
2023-05-14T11:06:15.538Z,97569.37
2023-05-14T11:16:23.371Z,97557.34
2023-05-14T11:26:27.585Z,97539.78
2023-05-14T11:36:30.827Z,97548.16
2023-05-14T11:46:34.178Z,97535.03
2023-05-14T11:56:37.142Z,97519.88
2023-05-14T12:06:40.495Z,97502.56
2023-05-14T12:16:45.153Z,97492.56
2023-05-14T12:26:50.638Z,97484.44
2023-05-14T12:36:55.431Z,97492.06
2023-05-14T12:46:58.717Z,97491.44
2023-05-14T12:57:02.253Z,97478.53
2023-05-14T13:07:06.502Z,97464.56
2023-05-14T13:17:10.256Z,97450.31
2023-05-14T13:27:13.146Z,97444.31
2023-05-14T13:37:16.428Z,97443.75
2023-05-14T13:47:21.846Z,97433.69
2023-05-14T13:57:24.991Z,97415.31
2023-05-14T14:07:28.298Z,97416.44
2023-05-14T14:17:31.410Z,97405.62
2023-05-14T14:27:37.165Z,97415.31
2023-05-14T14:37:40.210Z,97406.72
2023-05-14T14:47:44.673Z,97408.00
2023-05-14T14:57:47.692Z,97414.22
2023-05-14T15:07:50.170Z,97405.78
2023-05-14T15:17:52.786Z,97405.59
2023-05-14T15:27:56.140Z,97402.87
2023-05-14T15:37:59.681Z,97407.69
2023-05-14T15:48:03.067Z,97381.00
2023-05-14T15:58:06.951Z,97371.56
2023-05-14T16:08:09.946Z,97388.41
2023-05-14T16:18:13.223Z,97385.88
2023-05-14T16:28:16.108Z,97400.31
2023-05-14T16:38:19.955Z,97423.88
2023-05-14T16:48:24.541Z,97429.97
2023-05-14T16:58:33.677Z,97421.31
2023-05-14T17:08:38.183Z,97414.38
2023-05-14T17:18:41.839Z,97426.47
2023-05-14T17:28:45.697Z,97444.16
2023-05-14T17:38:49.193Z,97425.78
2023-05-14T17:48:53.688Z,97435.75
2023-05-14T17:58:57.026Z,97439.91
2023-05-14T18:08:59.854Z,97430.47
2023-05-14T18:19:02.392Z,97429.16
2023-05-14T18:29:05.213Z,97450.44
2023-05-14T18:39:08.099Z,97463.03
2023-05-14T18:49:12.005Z,97473.47
2023-05-14T18:59:15.448Z,97474.28
2023-05-14T19:09:22.422Z,97471.81
2023-05-14T19:19:26.525Z,97475.19
2023-05-14T19:29:29.220Z,97489.84
2023-05-14T19:39:31.996Z,97510.41
2023-05-14T19:49:34.768Z,97512.47
2023-05-14T19:59:39.555Z,97526.59
2023-05-14T20:09:43.071Z,97539.13
2023-05-14T20:19:46.020Z,97544.03
2023-05-14T20:29:51.801Z,97537.81
2023-05-14T20:39:54.576Z,97533.22
2023-05-14T20:49:57.923Z,97543.06
2023-05-14T21:00:00.742Z,97543.88
2023-05-14T21:10:05.263Z,97522.28
2023-05-14T21:20:08.574Z,97509.34
2023-05-14T21:30:11.773Z,97502.63
2023-05-14T21:40:14.341Z,97492.34
2023-05-14T21:50:16.794Z,97482.34
2023-05-14T22:00:23.669Z,97486.50
2023-05-14T22:10:26.062Z,97485.56
2023-05-14T22:20:28.440Z,97492.16
2023-05-14T22:30:31.164Z,97495.69
2023-05-14T22:40:33.642Z,97487.31
2023-05-14T22:50:36.208Z,97479.50
2023-05-14T23:00:39.724Z,97495.19
2023-05-14T23:10:42.859Z,97500.28
2023-05-14T23:20:47.681Z,97494.91
2023-05-14T23:30:51.339Z,97490.31
2023-05-14T23:40:53.724Z,97479.78
2023-05-14T23:50:55.962Z,97463.84
